createdAt,value
2024-04-19T00:02:06.969Z,144.55
2024-04-19T00:04:37.472Z,149.68
2024-04-19T00:07:08.520Z,143.90
2024-04-19T00:09:39.876Z,153.20
2024-04-19T00:12:10.597Z,149.23
2024-04-19T00:14:42.813Z,158.68
2024-04-19T00:17:15.139Z,168.35
2024-04-19T00:19:47.248Z,182.27
2024-04-19T00:22:17.962Z,188.32
2024-04-19T00:24:49.395Z,195.75
2024-04-19T00:27:19.963Z,187.80
2024-04-19T00:29:52.173Z,194.30
2024-04-19T00:32:22.625Z,177.63
2024-04-19T00:34:54.643Z,181.77
2024-04-19T00:37:25.147Z,189.38
2024-04-19T00:39:56.041Z,187.27
2024-04-19T00:42:27.703Z,191.32
2024-04-19T00:44:58.336Z,189.52
2024-04-19T00:47:29.093Z,185.77
2024-04-19T00:50:00.497Z,177.95
2024-04-19T00:52:31.005Z,172.70
2024-04-19T00:55:01.718Z,184.02
2024-04-19T00:57:32.489Z,182.13
2024-04-19T01:00:05.852Z,207.30
2024-04-19T01:02:37.853Z,197.05
2024-04-19T01:05:08.847Z,186.63
2024-04-19T01:07:39.404Z,198.60
2024-04-19T01:10:10.305Z,200.60
2024-04-19T01:12:40.921Z,208.88
2024-04-19T01:15:27.304Z,215.07
2024-04-19T01:17:58.080Z,227.98
2024-04-19T01:20:29.449Z,208.25
2024-04-19T01:23:00.160Z,205.45
2024-04-19T01:25:45.373Z,208.38
2024-04-19T01:28:16.682Z,193.25
2024-04-19T01:30:48.425Z,200.45
2024-04-19T01:33:19.232Z,217.25
2024-04-19T01:35:49.982Z,214.63
2024-04-19T01:38:20.461Z,224.23
2024-04-19T01:40:51.001Z,235.23
2024-04-19T01:43:21.447Z,234.63
2024-04-19T01:45:52.115Z,257.98
2024-04-19T01:48:22.825Z,271.92
2024-04-19T01:50:53.423Z,273.67
2024-04-19T01:53:23.956Z,279.70
2024-04-19T01:55:57.497Z,288.73
2024-04-19T01:58:27.993Z,253.35
2024-04-19T02:00:59.438Z,263.27
2024-04-19T02:03:30.003Z,277.40
2024-04-19T02:06:15.443Z,265.20
2024-04-19T02:08:46.039Z,252.05
2024-04-19T02:11:19.650Z,259.17
2024-04-19T02:13:50.235Z,263.10
2024-04-19T02:16:21.494Z,246.95
2024-04-19T02:18:52.096Z,240.32
2024-04-19T02:21:22.660Z,241.45
2024-04-19T02:23:56.042Z,246.60
2024-04-19T02:26:26.663Z,247.93
2024-04-19T02:29:15.511Z,250.48
2024-04-19T02:31:48.307Z,239.88
2024-04-19T02:34:18.997Z,233.13
2024-04-19T02:36:51.143Z,251.65
2024-04-19T02:39:21.751Z,226.50
2024-04-19T02:41:54.674Z,234.75
2024-04-19T02:44:25.198Z,212.13
2024-04-19T02:46:56.539Z,228.02
2024-04-19T02:49:27.027Z,217.75
2024-04-19T02:51:59.849Z,220.55
2024-04-19T02:54:30.305Z,205.10
2024-04-19T02:57:03.610Z,192.25
2024-04-19T02:59:34.610Z,186.88
2024-04-19T03:02:13.242Z,190.23
2024-04-19T03:04:43.836Z,165.48
2024-04-19T03:07:14.973Z,170.68
2024-04-19T03:09:45.872Z,176.43
2024-04-19T03:12:16.547Z,165.60
2024-04-19T03:14:50.178Z,172.60
2024-04-19T03:17:20.704Z,155.77
2024-04-19T03:19:51.207Z,145.15
2024-04-19T03:22:21.747Z,138.88
2024-04-19T03:24:52.305Z,128.43
2024-04-19T03:27:22.869Z,130.63
2024-04-19T03:29:59.985Z,159.20
2024-04-19T03:32:30.766Z,140.32
2024-04-19T03:35:02.384Z,133.88
2024-04-19T03:37:38.307Z,125.28
2024-04-19T03:40:09.227Z,135.23
2024-04-19T03:42:49.399Z,131.32
2024-04-19T03:45:38.213Z,127.72
2024-04-19T03:48:09.006Z,129.85
2024-04-19T03:50:42.385Z,139.93
2024-04-19T03:53:13.935Z,133.55
2024-04-19T03:55:44.403Z,128.57
2024-04-19T03:58:14.952Z,129.82
2024-04-19T04:00:45.684Z,129.10
2024-04-19T04:03:16.568Z,138.38
2024-04-19T04:05:53.714Z,135.40
2024-04-19T04:08:24.288Z,142.63
2024-04-19T04:10:55.360Z,142.32
2024-04-19T04:13:25.834Z,134.48
2024-04-19T04:15:56.383Z,148.90
2024-04-19T04:18:27.061Z,148.93
2024-04-19T04:20:57.653Z,139.93
2024-04-19T04:23:28.695Z,155.40
2024-04-19T04:25:59.144Z,135.40
2024-04-19T04:28:29.649Z,151.05
2024-04-19T04:31:00.482Z,148.55
2024-04-19T04:33:31.018Z,139.20
2024-04-19T04:36:01.675Z,149.35
2024-04-19T04:38:32.122Z,165.98
2024-04-19T04:41:02.676Z,149.93
2024-04-19T04:43:33.270Z,144.02
2024-04-19T04:46:03.781Z,160.00
2024-04-19T04:48:34.400Z,138.57
2024-04-19T04:51:06.681Z,144.50
2024-04-19T04:53:38.520Z,130.80
2024-04-19T04:56:09.363Z,133.73
2024-04-19T04:58:39.810Z,132.13
2024-04-19T05:01:11.379Z,133.10
2024-04-19T05:03:42.021Z,123.30
2024-04-19T05:06:12.532Z,125.03
2024-04-19T05:08:43.240Z,130.13
2024-04-19T05:11:13.740Z,131.90
2024-04-19T05:13:44.200Z,119.00
2024-04-19T05:19:00.936Z,133.82
2024-04-19T05:21:31.430Z,121.18
2024-04-19T05:24:01.947Z,121.15
2024-04-19T05:26:32.522Z,114.63
2024-04-19T05:29:02.998Z,108.10
2024-04-19T05:31:33.675Z,126.70
2024-04-19T05:34:05.915Z,107.68
2024-04-19T05:36:36.596Z,117.10
2024-04-19T05:39:07.963Z,113.13
2024-04-19T05:41:38.600Z,93.93
2024-04-19T05:44:11.392Z,101.47
2024-04-19T05:46:42.417Z,104.05
2024-04-19T05:49:13.788Z,100.82
2024-04-19T05:51:44.422Z,107.63
2024-04-19T05:54:16.277Z,99.78
2024-04-19T05:56:47.031Z,95.38
2024-04-19T05:59:18.488Z,94.30
2024-04-19T06:01:49.135Z,100.55
2024-04-19T06:04:20.734Z,97.10
2024-04-19T06:06:51.463Z,96.53
2024-04-19T06:09:23.388Z,84.72
2024-04-19T06:11:54.869Z,87.97
2024-04-19T06:14:25.799Z,86.38
2024-04-19T06:16:56.507Z,91.72
2024-04-19T06:19:28.292Z,80.53
2024-04-19T06:22:16.204Z,88.38
2024-04-19T06:24:47.278Z,80.97
2024-04-19T06:27:17.894Z,88.70
2024-04-19T06:29:48.703Z,79.78
2024-04-19T06:32:19.264Z,94.65
2024-04-19T06:34:56.907Z,95.47
2024-04-19T06:37:28.271Z,89.82
2024-04-19T06:40:05.775Z,89.72
2024-04-19T06:45:09.457Z,89.45
2024-04-19T06:47:40.821Z,96.63
2024-04-19T06:50:11.466Z,87.55
2024-04-19T06:52:42.211Z,95.90
2024-04-19T06:55:15.585Z,103.75
2024-04-19T06:57:46.225Z,89.22
2024-04-19T07:02:46.666Z,85.65
2024-04-19T07:05:17.342Z,84.93
2024-04-19T07:07:54.677Z,83.22
2024-04-19T07:10:26.185Z,99.72
2024-04-19T07:12:57.011Z,96.18
2024-04-19T07:15:27.847Z,88.80
2024-04-19T07:17:58.424Z,98.20
2024-04-19T07:20:28.968Z,85.90
2024-04-19T07:23:03.322Z,80.00
2024-04-19T07:25:33.994Z,89.40
2024-04-19T07:28:04.677Z,87.95
2024-04-19T07:30:35.354Z,86.97
2024-04-19T07:33:08.003Z,90.85
2024-04-19T07:35:38.783Z,97.43
2024-04-19T07:38:12.674Z,92.18
2024-04-19T07:40:43.676Z,106.25
2024-04-19T07:43:14.820Z,109.13
2024-04-19T07:45:46.563Z,80.25
2024-04-19T07:48:17.367Z,97.18
2024-04-19T07:50:49.248Z,92.53
2024-04-19T07:53:24.110Z,101.60
2024-04-19T07:55:54.625Z,84.45
2024-04-19T07:58:27.596Z,95.32
2024-04-19T08:01:01.461Z,97.75
2024-04-19T08:06:29.778Z,86.53
2024-04-19T08:09:00.534Z,95.40
2024-04-19T08:11:31.173Z,90.88
2024-04-19T08:14:13.798Z,97.05
2024-04-19T08:16:44.386Z,91.75
2024-04-19T08:19:51.227Z,92.05
2024-04-19T08:22:10.750Z,90.00
2024-04-19T08:25:01.265Z,87.90
2024-04-19T08:27:31.920Z,95.38
2024-04-19T08:30:02.468Z,88.28
2024-04-19T08:32:33.567Z,86.93
2024-04-19T08:35:04.426Z,90.13
2024-04-19T08:37:44.263Z,91.28
2024-04-19T08:40:21.487Z,90.45
2024-04-19T08:42:53.332Z,86.18
2024-04-19T08:45:25.200Z,78.20
2024-04-19T08:47:57.475Z,86.85
2024-04-19T08:50:29.372Z,99.05
2024-04-19T08:53:27.517Z,96.70
2024-04-19T08:55:59.925Z,79.20
2024-04-19T08:58:31.641Z,77.93
2024-04-19T09:01:04.021Z,80.72
2024-04-19T09:03:37.417Z,83.78
2024-04-19T09:06:10.650Z,76.32
2024-04-19T09:08:41.743Z,74.85
2024-04-19T09:11:16.768Z,66.05
2024-04-19T09:13:48.024Z,74.85
2024-04-19T09:16:22.693Z,71.70
2024-04-19T09:18:56.070Z,73.38
2024-04-19T09:21:29.693Z,70.53
2024-04-19T09:24:00.967Z,77.53
2024-04-19T09:26:33.919Z,74.40
2024-04-19T09:29:04.811Z,67.72
2024-04-19T09:31:38.738Z,75.57
2024-04-19T09:34:09.557Z,72.38
2024-04-19T09:36:54.323Z,72.72
2024-04-19T09:39:25.369Z,78.20
2024-04-19T09:41:56.826Z,74.03
2024-04-19T09:44:30.526Z,80.25
2024-04-19T09:47:10.353Z,69.22
2024-04-19T09:49:48.414Z,72.18
2024-04-19T09:52:26.441Z,81.57
2024-04-19T10:00:52.987Z,80.90
2024-04-19T10:03:25.408Z,83.93
2024-04-19T10:05:56.812Z,73.75
2024-04-19T10:08:31.789Z,84.47
2024-04-19T10:11:02.620Z,79.68
2024-04-19T10:13:36.227Z,82.57
2024-04-19T10:16:08.706Z,85.38
2024-04-19T10:19:14.543Z,78.93
2024-04-19T10:21:46.443Z,97.53
2024-04-19T10:24:24.052Z,86.25
2024-04-19T10:26:58.606Z,92.90
2024-04-19T10:29:29.664Z,83.25
2024-04-19T10:32:00.726Z,79.50
2024-04-19T10:37:24.869Z,92.78
2024-04-19T10:39:55.450Z,92.63
2024-04-19T10:42:27.223Z,70.22
2024-04-19T10:44:58.089Z,72.45
2024-04-19T10:47:30.951Z,73.78
2024-04-19T10:50:03.130Z,73.72
2024-04-19T10:52:36.927Z,77.57
2024-04-19T10:55:10.951Z,82.80
2024-04-19T10:57:51.136Z,85.00
2024-04-19T11:00:26.695Z,78.80
2024-04-19T11:03:10.632Z,74.75
2024-04-19T11:05:49.180Z,73.72
2024-04-19T11:08:20.779Z,84.70
2024-04-19T11:10:51.948Z,87.43
2024-04-19T11:13:29.089Z,84.13
2024-04-19T11:17:56.628Z,88.88
2024-04-19T11:20:27.393Z,78.53
2024-04-19T11:23:04.628Z,87.50
2024-04-19T11:25:39.841Z,85.60
2024-04-19T11:28:10.910Z,82.28
2024-04-19T11:30:42.810Z,107.13
2024-04-19T11:33:16.403Z,79.18
2024-04-19T11:35:47.914Z,85.45
2024-04-19T11:38:19.317Z,84.30
2024-04-19T11:40:51.377Z,81.80
2024-04-19T11:43:23.340Z,79.70
2024-04-19T11:45:53.915Z,85.78
2024-04-19T11:48:30.346Z,93.93
2024-04-19T11:51:01.866Z,115.28
2024-04-19T11:53:32.369Z,96.20
2024-04-19T11:56:02.852Z,92.40
2024-04-19T11:58:34.838Z,90.85
2024-04-19T12:02:32.245Z,99.47
2024-04-19T12:05:03.229Z,100.32
2024-04-19T12:07:34.173Z,88.20
2024-04-19T12:10:05.029Z,88.10
2024-04-19T12:13:12.749Z,80.35
2024-04-19T12:16:05.120Z,82.78
2024-04-19T12:18:16.801Z,84.53
2024-04-19T12:20:51.814Z,85.90
2024-04-19T12:23:24.332Z,89.95
2024-04-19T12:25:55.890Z,73.10
2024-04-19T12:28:28.206Z,81.40
2024-04-19T12:30:59.530Z,91.10
2024-04-19T12:33:30.390Z,77.88
2024-04-19T12:36:01.066Z,86.45
2024-04-19T12:38:31.590Z,95.75
2024-04-19T12:41:02.192Z,88.05
2024-04-19T12:43:32.682Z,96.00
2024-04-19T12:46:03.419Z,83.93
2024-04-19T12:48:34.144Z,89.22
2024-04-19T12:51:04.823Z,84.88
2024-04-19T12:53:35.441Z,97.32
2024-04-19T12:56:08.936Z,98.20
2024-04-19T12:58:42.862Z,97.80
2024-04-19T13:01:14.911Z,113.50
2024-04-19T13:03:51.656Z,99.78
2024-04-19T13:06:25.120Z,114.47
2024-04-19T13:08:55.656Z,98.07
2024-04-19T13:11:26.518Z,99.80
2024-04-19T13:14:00.417Z,96.93
2024-04-19T13:16:33.193Z,99.55
2024-04-19T13:19:03.967Z,92.22
2024-04-19T13:21:35.592Z,97.57
2024-04-19T13:24:06.797Z,177.45
2024-04-19T13:26:37.360Z,125.78
2024-04-19T13:29:07.896Z,104.43
2024-04-19T13:31:38.416Z,110.00
2024-04-19T13:34:08.887Z,146.50
2024-04-19T13:36:39.547Z,117.15
2024-04-19T13:39:10.178Z,100.43
2024-04-19T13:41:40.730Z,110.45
2024-04-19T13:44:14.390Z,108.05
2024-04-19T13:46:45.026Z,130.80
2024-04-19T13:49:16.670Z,115.95
2024-04-19T13:51:47.578Z,129.63
2024-04-19T13:54:19.322Z,98.43
2024-04-19T13:56:51.800Z,96.22
2024-04-19T13:59:24.219Z,95.95
2024-04-19T14:01:55.043Z,102.45
2024-04-19T14:04:25.826Z,111.60
2024-04-19T14:06:57.057Z,94.57
2024-04-19T14:09:28.357Z,110.65
2024-04-19T14:11:59.070Z,102.72
2024-04-19T14:14:30.822Z,97.03
2024-04-19T14:17:01.587Z,86.82
2024-04-19T14:19:32.488Z,93.18
2024-04-19T14:22:03.063Z,111.45
2024-04-19T14:24:33.700Z,99.68
2024-04-19T14:27:04.358Z,83.75
2024-04-19T14:29:35.204Z,107.78
2024-04-19T14:32:05.747Z,104.20
2024-04-19T14:34:36.263Z,103.50
2024-04-19T14:37:07.019Z,106.75
2024-04-19T14:39:37.724Z,108.55
2024-04-19T14:42:08.473Z,107.78
2024-04-19T14:44:38.926Z,108.43
2024-04-19T14:47:09.881Z,133.43
2024-04-19T14:49:40.947Z,127.50
2024-04-19T14:52:13.072Z,123.68
2024-04-19T14:54:47.017Z,127.30
2024-04-19T14:57:19.110Z,126.90
2024-04-19T14:59:49.859Z,118.97
2024-04-19T15:02:20.388Z,119.85
2024-04-19T15:04:50.900Z,125.82
2024-04-19T15:07:23.353Z,124.47
2024-04-19T15:09:54.252Z,119.45
2024-04-19T15:12:24.871Z,132.73
2024-04-19T15:14:55.437Z,124.68
2024-04-19T15:17:27.111Z,143.18
2024-04-19T15:19:58.839Z,127.63
2024-04-19T15:22:29.485Z,114.97
2024-04-19T15:25:00.170Z,113.45
2024-04-19T15:27:30.817Z,118.25
2024-04-19T15:30:01.298Z,113.30
2024-04-19T15:32:33.302Z,121.50
2024-04-19T15:35:03.950Z,127.07
2024-04-19T15:37:34.542Z,131.02
2024-04-19T15:40:05.101Z,119.22
2024-04-19T15:42:35.623Z,128.77
2024-04-19T15:45:06.396Z,116.95
2024-04-19T15:47:38.335Z,118.47
2024-04-19T15:50:09.899Z,113.30
2024-04-19T15:52:40.479Z,126.55
2024-04-19T15:55:11.093Z,116.95
2024-04-19T15:57:44.578Z,135.90
2024-04-19T16:00:17.269Z,139.85
2024-04-19T16:02:51.318Z,148.88
2024-04-19T16:05:21.762Z,165.15
2024-04-19T16:07:54.090Z,171.68
2024-04-19T16:10:24.559Z,152.55
2024-04-19T16:12:55.286Z,136.48
2024-04-19T16:15:25.964Z,140.30
2024-04-19T16:17:56.643Z,157.23
2024-04-19T16:20:27.336Z,154.10
2024-04-19T16:22:57.780Z,157.48
2024-04-19T16:25:28.253Z,136.73
2024-04-19T16:27:58.884Z,137.85
2024-04-19T16:30:29.626Z,147.73
2024-04-19T16:33:06.176Z,141.35
2024-04-19T16:35:41.837Z,135.63
2024-04-19T16:38:18.261Z,136.18
2024-04-19T16:40:53.516Z,115.80
2024-04-19T16:43:24.222Z,127.78
2024-04-19T16:45:54.814Z,137.50
2024-04-19T16:48:25.673Z,121.85
2024-04-19T16:50:58.438Z,115.07
2024-04-19T16:53:30.051Z,113.68
2024-04-19T16:56:00.732Z,128.30
2024-04-19T16:58:32.894Z,108.93
2024-04-19T17:01:09.332Z,123.60
2024-04-19T17:03:40.780Z,116.88
2024-04-19T17:06:14.211Z,107.53
2024-04-19T17:08:46.135Z,115.90
2024-04-19T17:11:18.297Z,101.50
2024-04-19T17:13:51.936Z,113.35
2024-04-19T17:16:22.863Z,118.18
2024-04-19T17:18:53.823Z,117.60
2024-04-19T17:21:24.888Z,101.72
2024-04-19T17:23:55.479Z,115.85
2024-04-19T17:26:26.045Z,116.65
2024-04-19T17:28:57.244Z,125.57
2024-04-19T17:31:34.091Z,125.05
2024-04-19T17:34:04.643Z,118.05
2024-04-19T17:36:35.204Z,118.10
2024-04-19T17:39:05.860Z,110.28
2024-04-19T17:41:36.408Z,130.55
2024-04-19T17:44:06.899Z,124.78
2024-04-19T17:46:40.903Z,122.57
2024-04-19T17:49:11.452Z,114.65
2024-04-19T17:51:41.945Z,114.68
2024-04-19T17:54:13.435Z,134.57
2024-04-19T17:56:43.932Z,121.35
2024-04-19T17:59:14.717Z,129.60
2024-04-19T18:01:45.567Z,118.07
2024-04-19T18:04:16.236Z,110.22
2024-04-19T18:06:46.713Z,125.65
2024-04-19T18:09:18.365Z,147.73
2024-04-19T18:11:48.904Z,202.68
2024-04-19T18:14:19.455Z,142.70
2024-04-19T18:16:50.079Z,125.00
2024-04-19T18:19:21.125Z,116.53
2024-04-19T18:21:51.659Z,121.90
2024-04-19T18:24:29.797Z,115.03
2024-04-19T18:27:02.538Z,111.38
2024-04-19T18:29:34.656Z,107.30
2024-04-19T18:32:05.268Z,122.10
2024-04-19T18:34:36.801Z,118.97
2024-04-19T18:37:10.587Z,123.88
2024-04-19T18:39:42.700Z,116.88
2024-04-19T18:42:13.413Z,128.38
2024-04-19T18:44:45.467Z,116.53
2024-04-19T18:47:19.784Z,111.80
2024-04-19T18:49:51.158Z,114.72
2024-04-19T18:52:21.694Z,117.93
2024-04-19T18:54:53.763Z,116.45
2024-04-19T18:57:24.335Z,130.10
2024-04-19T18:59:57.337Z,119.22
2024-04-19T19:02:27.856Z,115.28
2024-04-19T19:04:59.236Z,95.10
2024-04-19T19:07:29.803Z,95.00
2024-04-19T19:10:00.758Z,103.18
2024-04-19T19:12:31.495Z,104.97
2024-04-19T19:15:02.061Z,102.43
2024-04-19T19:17:32.572Z,109.70
2024-04-19T19:20:11.622Z,92.95
2024-04-19T19:22:42.361Z,119.63
2024-04-19T19:25:15.247Z,96.65
2024-04-19T19:27:45.959Z,90.45
2024-04-19T19:30:19.523Z,95.93
2024-04-19T19:32:50.242Z,101.35
2024-04-19T19:35:20.872Z,78.93
2024-04-19T19:37:51.345Z,86.07
2024-04-19T19:40:22.067Z,94.78
2024-04-19T19:42:53.103Z,97.40
2024-04-19T19:45:24.368Z,92.70
2024-04-19T19:47:55.061Z,110.18
2024-04-19T19:50:26.170Z,94.18
2024-04-19T19:52:57.369Z,83.45
2024-04-19T19:55:28.054Z,89.93
2024-04-19T19:57:58.872Z,95.57
2024-04-19T20:00:48.435Z,88.53
2024-04-19T20:03:37.024Z,103.40
2024-04-19T20:06:07.679Z,94.85
2024-04-19T20:08:38.125Z,90.22
2024-04-19T20:11:08.752Z,89.95
2024-04-19T20:13:39.468Z,93.45
2024-04-19T20:16:10.936Z,84.57
2024-04-19T20:18:42.278Z,92.57
2024-04-19T20:21:12.855Z,91.60
2024-04-19T20:23:47.189Z,92.82
2024-04-19T20:26:19.333Z,97.15
2024-04-19T20:28:49.790Z,109.63
2024-04-19T20:31:21.042Z,91.15
2024-04-19T20:33:52.386Z,99.97
2024-04-19T20:36:22.896Z,89.82
2024-04-19T20:38:53.371Z,107.05
2024-04-19T20:41:23.871Z,88.97
2024-04-19T20:43:54.314Z,82.72
2024-04-19T20:46:27.521Z,89.82
2024-04-19T20:48:58.095Z,111.10
2024-04-19T20:51:28.747Z,90.38
2024-04-19T20:53:59.224Z,87.53
2024-04-19T20:56:29.924Z,83.32
2024-04-19T20:59:00.425Z,78.60
2024-04-19T21:01:31.219Z,113.35
2024-04-19T21:04:02.010Z,86.47
2024-04-19T21:06:32.573Z,96.60
2024-04-19T21:09:03.053Z,81.55
2024-04-19T21:11:39.729Z,92.10
2024-04-19T21:14:12.199Z,82.28
2024-04-19T21:16:42.837Z,68.22
2024-04-19T21:19:13.441Z,77.93
2024-04-19T21:21:45.142Z,84.80
2024-04-19T21:24:15.645Z,92.45
2024-04-19T21:26:46.123Z,92.47
2024-04-19T21:29:16.664Z,98.63
2024-04-19T21:31:47.204Z,105.38
2024-04-19T21:34:17.879Z,78.57
2024-04-19T21:36:51.477Z,82.82
2024-04-19T21:39:22.639Z,95.00
2024-04-19T21:41:57.005Z,96.18
2024-04-19T21:44:27.555Z,101.78
2024-04-19T21:46:58.962Z,99.40
2024-04-19T21:49:29.539Z,80.85
2024-04-19T21:52:03.646Z,85.95
2024-04-19T21:54:34.139Z,82.72
2024-04-19T21:57:07.129Z,80.22
2024-04-19T21:59:37.612Z,69.28
2024-04-19T22:02:08.303Z,83.25
2024-04-19T22:04:39.164Z,76.82
2024-04-19T22:07:09.654Z,75.97
2024-04-19T22:09:40.022Z,77.47
2024-04-19T22:12:10.560Z,90.25
2024-04-19T22:14:40.991Z,78.03
2024-04-19T22:17:17.767Z,94.57
2024-04-19T22:19:48.304Z,79.63
2024-04-19T22:22:18.796Z,69.88
2024-04-19T22:24:49.962Z,75.35
2024-04-19T22:27:21.341Z,67.85
2024-04-19T22:29:55.105Z,78.57
2024-04-19T22:32:29.143Z,81.45
2024-04-19T22:34:59.660Z,95.10
2024-04-19T22:37:33.921Z,85.30
2024-04-19T22:40:04.587Z,82.47
2024-04-19T22:42:38.508Z,86.80
2024-04-19T22:45:09.780Z,103.95
2024-04-19T22:47:40.330Z,82.22
2024-04-19T22:50:10.983Z,92.68
2024-04-19T22:52:45.310Z,91.18
2024-04-19T22:55:15.773Z,86.90
2024-04-19T22:57:47.147Z,91.18
2024-04-19T23:00:19.261Z,84.60
2024-04-19T23:02:52.778Z,92.65
2024-04-19T23:05:24.058Z,95.20
2024-04-19T23:07:55.322Z,94.32
2024-04-19T23:10:25.808Z,91.78
2024-04-19T23:12:58.578Z,84.07
2024-04-19T23:15:31.897Z,92.07
2024-04-19T23:18:06.218Z,87.30
2024-04-19T23:20:36.732Z,77.57
2024-04-19T23:23:07.385Z,85.10
2024-04-19T23:25:37.790Z,104.63
2024-04-19T23:28:09.166Z,88.75
2024-04-19T23:30:42.245Z,77.68
2024-04-19T23:33:12.976Z,79.30
2024-04-19T23:35:43.449Z,77.35
2024-04-19T23:38:16.232Z,90.32
2024-04-19T23:40:46.724Z,75.70
2024-04-19T23:43:19.437Z,93.60
2024-04-19T23:45:51.144Z,90.78
2024-04-19T23:48:21.931Z,86.72
2024-04-19T23:50:52.360Z,92.20
2024-04-19T23:53:22.828Z,100.95
2024-04-19T23:55:53.274Z,77.28
2024-04-19T23:58:23.846Z,91.53
